Whittier, AK (99693)

4:03 AM AKST on February 11, 2016 (GMT -0900)
AKDOT | | Change Station
CLOSE
Current Station
Personal Weather Station
Location: Girdwood, AK
Elevation: 101 ft
Nearby Weather Stations

Elev 101 ft 60.78 °N, 148.73 °W | Updated 41 minutes ago

Heavy Rain
Heavy Rain Mist
38 °F
Feels Like 33 °F
N
7
Wind Variable Wind from NNE
Gusts 9.0 mph

Today
High -- | Low -- °F
--% Chance of Precip.
Yesterday
High -- | Low -- °F
Precip. -- in
Pressure 29.50 in
Visibility 2.0 miles
Clouds Mostly Cloudy 2100 ft
Overcast 3100 ft
Windchill 33 °F
Dew Point 37 °F
Humidity 97%
Rainfall in
Snow Depth Not available.
8:47 AM 5:31 PM
Waxing Crescent, 12% visible
METAR PATO 111253Z AUTO 12019G28KT 100V160 2SM +RA BR BKN021 OVC031 04/03 A2949 RMK AO2 PK WND 13029/1227 SLP988 P0013 T00440028 TSNO
Pressure 29.50 in
Visibility 2.0 miles
Clouds Mostly Cloudy 2100 ft
Overcast 3100 ft
Windchill 33 °F
Dew Point 37 °F
Humidity 97%
Rainfall in
Snow Depth Not available.
8:47 AM 5:31 PM
Waxing Crescent, 12% visible
METAR PATO 111253Z AUTO 12019G28KT 100V160 2SM +RA BR BKN021 OVC031 04/03 A2949 RMK AO2 PK WND 13029/1227 SLP988 P0013 T00440028 TSNO

10-Day Weather Forecast

Almanac

Astronomy

Feb. 11, 2016 Rise Set
Actual Time
Civil Twilight
Nautical Twilight
Astronomical Twilight
Moon
Length of Visible Light
Length of Day
Tomorrow will be .
, % of the Moon is Illuminated

Today's Extremes

State Highs State Lows

Community

WunderPhotos

Upload Photos

1,892,038 photos uploaded!

WunderBlog® & News

Nearby

Air Quality

  Air Quality AQ Index Pollutant
Not available.

Snow Depth

Station Depth Elevation

Earthquake Activity

City Distance Mag. Time & Date
Minimum magnitude displayed is 2.5.

Coastal Water Temperatures

Place Temperature

Stations

Nearby Weather Stations

Station Location Temp. Windchill Dew Point Humidity Wind Precip. Elev Updated Type
                   

Watches & Warnings

There are currently no watches in effect.